createdAt,value
2022-10-11T00:00:14.017Z,15.70
2022-10-11T00:02:40.846Z,15.70
2022-10-11T00:05:08.807Z,15.60
2022-10-11T00:07:38.024Z,15.50
2022-10-11T00:10:08.256Z,15.50
2022-10-11T00:12:36.355Z,15.40
2022-10-11T00:15:06.029Z,15.40
2022-10-11T00:17:33.226Z,15.30
2022-10-11T00:20:00.310Z,15.20
2022-10-11T00:22:27.263Z,15.10
2022-10-11T00:24:54.412Z,15.10
2022-10-11T00:27:21.249Z,14.90
2022-10-11T00:29:48.312Z,15.00
2022-10-11T00:32:15.211Z,14.90
2022-10-11T00:34:42.676Z,14.80
2022-10-11T00:37:09.617Z,14.80
2022-10-11T00:39:36.520Z,14.80
2022-10-11T00:42:04.161Z,14.60
2022-10-11T00:44:33.325Z,14.60
2022-10-11T00:47:09.529Z,14.60
2022-10-11T00:49:54.390Z,14.50
2022-10-11T00:52:32.502Z,14.50
2022-10-11T00:55:12.289Z,14.40
2022-10-11T00:57:44.037Z,14.40
2022-10-11T01:00:13.955Z,14.40
2022-10-11T01:02:41.741Z,14.30
2022-10-11T01:05:29.303Z,14.30
2022-10-11T01:08:01.072Z,14.20
2022-10-11T01:10:28.990Z,14.20
2022-10-11T01:13:48.194Z,14.10
2022-10-11T01:17:00.263Z,14.10
2022-10-11T01:19:45.622Z,14.00
2022-10-11T01:23:05.862Z,14.00
2022-10-11T01:26:13.098Z,13.90
2022-10-11T01:29:15.337Z,13.80
2022-10-11T01:32:12.697Z,13.80
2022-10-11T01:35:03.466Z,13.70
2022-10-11T01:37:43.823Z,13.70
2022-10-11T01:40:23.232Z,13.60
2022-10-11T01:42:51.677Z,13.60
2022-10-11T01:45:20.759Z,13.60
2022-10-11T01:47:48.035Z,13.50
2022-10-11T01:50:40.061Z,13.50
2022-10-11T01:53:43.894Z,13.50
2022-10-11T01:56:36.812Z,13.40
2022-10-11T02:00:16.053Z,13.40
2022-10-11T02:03:44.498Z,13.40
2022-10-11T02:06:40.769Z,13.30
2022-10-11T02:09:53.714Z,13.30
2022-10-11T02:12:46.433Z,13.20
2022-10-11T02:15:16.693Z,13.20
2022-10-11T02:17:55.596Z,13.20
2022-10-11T02:20:26.384Z,13.10
2022-10-11T02:23:01.577Z,13.20
2022-10-11T02:25:31.008Z,13.20
2022-10-11T02:28:01.564Z,13.20
2022-10-11T02:30:30.692Z,13.10
2022-10-11T02:32:59.168Z,13.10
2022-10-11T02:35:29.839Z,13.10
2022-10-11T02:38:12.910Z,13.10
2022-10-11T02:40:45.146Z,13.10
2022-10-11T02:43:33.466Z,13.00
2022-10-11T02:46:05.954Z,13.10
2022-10-11T02:48:35.499Z,13.00
2022-10-11T02:51:04.070Z,13.10
2022-10-11T02:53:31.322Z,13.00
2022-10-11T02:55:58.266Z,13.00
2022-10-11T02:58:25.615Z,13.00
2022-10-11T03:00:52.683Z,12.90
2022-10-11T03:03:19.827Z,12.90
2022-10-11T03:05:47.129Z,12.90
2022-10-11T03:08:17.154Z,12.90
2022-10-11T03:10:45.146Z,12.80
2022-10-11T03:13:16.001Z,12.80
2022-10-11T03:16:02.333Z,12.80
2022-10-11T03:18:31.468Z,12.80
2022-10-11T03:20:58.890Z,12.80
2022-10-11T03:23:25.768Z,12.80
2022-10-11T03:25:52.749Z,12.70
2022-10-11T03:28:20.232Z,12.70
2022-10-11T03:30:51.670Z,12.70
2022-10-11T03:33:19.271Z,12.70
2022-10-11T03:35:47.410Z,12.70
2022-10-11T03:38:21.939Z,12.70
2022-10-11T03:40:49.248Z,12.70
2022-10-11T03:43:16.607Z,12.70
2022-10-11T03:45:43.753Z,12.60
2022-10-11T03:48:11.566Z,12.60
2022-10-11T03:50:38.966Z,12.60
2022-10-11T03:53:07.550Z,12.60
2022-10-11T03:55:34.557Z,12.60
2022-10-11T03:58:01.517Z,12.60
2022-10-11T04:00:28.644Z,12.60
2022-10-11T04:02:55.695Z,12.50
2022-10-11T04:05:22.654Z,12.60
2022-10-11T04:07:49.757Z,12.50
2022-10-11T04:10:17.264Z,12.50
2022-10-11T04:12:44.226Z,12.50
2022-10-11T04:15:13.798Z,12.50
2022-10-11T04:17:41.649Z,12.50
2022-10-11T04:20:09.597Z,12.50
2022-10-11T04:22:36.753Z,12.50
2022-10-11T04:25:04.285Z,12.50
2022-10-11T04:27:31.293Z,12.40
2022-10-11T04:29:58.241Z,12.50
2022-10-11T04:32:25.384Z,12.40
2022-10-11T04:34:53.282Z,12.40
2022-10-11T04:37:20.453Z,12.40
2022-10-11T04:39:47.583Z,12.30
2022-10-11T04:42:14.606Z,12.30
2022-10-11T04:44:41.454Z,12.30
2022-10-11T04:47:08.695Z,12.30
2022-10-11T04:49:35.618Z,12.30
2022-10-11T04:52:02.970Z,12.30
2022-10-11T04:54:30.062Z,12.30
2022-10-11T04:56:56.885Z,12.20
2022-10-11T04:59:23.889Z,12.20
2022-10-11T05:01:51.047Z,12.20
2022-10-11T05:04:17.998Z,12.20
2022-10-11T05:06:45.007Z,12.10
2022-10-11T05:09:11.921Z,12.10
2022-10-11T05:11:39.061Z,12.10
2022-10-11T05:14:05.957Z,12.10
2022-10-11T05:16:33.065Z,12.00
2022-10-11T05:19:00.104Z,12.00
2022-10-11T05:21:29.107Z,12.00
2022-10-11T05:23:57.290Z,12.00
2022-10-11T05:26:27.605Z,12.00
2022-10-11T05:28:55.346Z,12.00
2022-10-11T05:31:22.724Z,12.00
2022-10-11T05:33:49.745Z,12.00
2022-10-11T05:36:17.220Z,12.00
2022-10-11T05:38:44.168Z,12.00
2022-10-11T05:41:14.835Z,12.00
2022-10-11T05:44:08.180Z,12.00
2022-10-11T05:46:35.353Z,12.00
2022-10-11T05:49:02.364Z,12.00
2022-10-11T05:51:29.439Z,12.00
2022-10-11T05:54:22.115Z,12.00
2022-10-11T05:56:49.026Z,12.00
2022-10-11T05:59:15.863Z,12.00
2022-10-11T06:01:43.063Z,12.10
2022-10-11T06:04:11.735Z,12.10
2022-10-11T06:06:38.590Z,12.10
2022-10-11T06:09:05.554Z,12.10
2022-10-11T06:11:32.602Z,12.20
2022-10-11T06:13:59.601Z,12.20
2022-10-11T06:16:27.532Z,12.30
2022-10-11T06:18:56.843Z,12.30
2022-10-11T06:21:24.482Z,12.30
2022-10-11T06:23:56.866Z,12.40
2022-10-11T06:26:27.675Z,12.40
2022-10-11T06:28:54.907Z,12.50
2022-10-11T06:31:23.231Z,12.60
2022-10-11T06:33:50.069Z,12.70
2022-10-11T06:36:17.655Z,12.80
2022-10-11T06:38:45.403Z,12.90
2022-10-11T06:41:26.642Z,13.00
2022-10-11T06:43:53.566Z,13.20
2022-10-11T06:46:23.449Z,13.30
2022-10-11T06:48:51.371Z,13.50
2022-10-11T06:51:21.244Z,13.70
2022-10-11T06:53:55.286Z,13.80
2022-10-11T06:56:22.248Z,14.00
2022-10-11T06:58:51.158Z,14.30
2022-10-11T07:01:21.180Z,14.50
2022-10-11T07:03:48.718Z,14.80
2022-10-11T07:06:25.266Z,15.00
2022-10-11T07:08:52.757Z,15.30
2022-10-11T07:11:23.882Z,15.60
2022-10-11T07:13:53.753Z,15.90
2022-10-11T07:16:21.806Z,16.20
2022-10-11T07:19:00.460Z,16.50
2022-10-11T07:21:30.013Z,16.90
2022-10-11T07:23:56.909Z,17.20
2022-10-11T07:26:23.874Z,17.50
2022-10-11T07:28:50.824Z,17.80
2022-10-11T07:31:23.483Z,18.10
2022-10-11T07:33:50.918Z,18.40
2022-10-11T07:36:17.865Z,18.70
2022-10-11T07:38:46.851Z,19.00
2022-10-11T07:41:14.481Z,19.30
2022-10-11T07:43:43.330Z,19.60
2022-10-11T07:46:11.208Z,20.10
2022-10-11T07:48:38.757Z,20.40
2022-10-11T07:51:16.267Z,20.90
2022-10-11T07:53:46.650Z,21.20
2022-10-11T07:56:17.713Z,21.50
2022-10-11T07:59:11.161Z,21.90
2022-10-11T08:01:38.416Z,22.30
2022-10-11T08:04:05.498Z,22.70
2022-10-11T08:06:32.748Z,22.90
2022-10-11T08:09:01.048Z,23.20
2022-10-11T08:11:35.059Z,23.50
2022-10-11T08:14:08.422Z,23.80
2022-10-11T08:16:36.730Z,24.10
2022-10-11T08:19:04.372Z,24.40
2022-10-11T08:21:32.347Z,24.60
2022-10-11T08:23:59.919Z,24.90
2022-10-11T08:26:26.978Z,25.30
2022-10-11T08:28:53.926Z,25.50
2022-10-11T08:31:21.342Z,25.80
2022-10-11T08:33:48.247Z,26.00
2022-10-11T08:36:15.558Z,26.30
2022-10-11T08:38:42.643Z,26.50
2022-10-11T08:41:38.854Z,26.70
2022-10-11T08:45:10.468Z,26.90
2022-10-11T08:47:37.896Z,27.20
2022-10-11T08:50:08.693Z,27.40
2022-10-11T08:52:53.726Z,27.50
2022-10-11T08:55:52.981Z,27.60
2022-10-11T08:58:25.913Z,27.80
2022-10-11T09:00:56.601Z,28.10
2022-10-11T09:03:43.054Z,28.30
2022-10-11T09:06:37.475Z,28.60
2022-10-11T09:09:22.747Z,28.80
2022-10-11T09:12:11.810Z,29.00
2022-10-11T09:15:55.173Z,29.20
2022-10-11T09:18:45.874Z,29.60
2022-10-11T09:21:42.190Z,30.00
2022-10-11T09:24:27.318Z,30.40
2022-10-11T09:27:01.778Z,30.70
2022-10-11T09:30:04.035Z,31.10
2022-10-11T09:32:37.779Z,31.30
2022-10-11T09:35:22.977Z,31.50
2022-10-11T09:38:14.658Z,31.70
2022-10-11T09:41:22.237Z,31.70
2022-10-11T09:43:50.799Z,31.90
2022-10-11T09:46:37.555Z,32.20
2022-10-11T09:49:12.455Z,32.30
2022-10-11T09:51:45.153Z,32.20
2022-10-11T09:54:12.018Z,32.20
2022-10-11T09:56:45.368Z,32.40
2022-10-11T09:59:27.565Z,32.80
2022-10-11T10:02:20.673Z,32.90
2022-10-11T10:05:10.815Z,33.30
2022-10-11T10:07:41.028Z,33.90
2022-10-11T10:10:39.365Z,34.40
2022-10-11T10:13:41.967Z,35.00
2022-10-11T10:16:29.614Z,35.30
2022-10-11T10:19:07.723Z,35.50
2022-10-11T10:21:38.814Z,35.60
2022-10-11T10:24:18.307Z,35.70
2022-10-11T10:27:14.482Z,35.90
2022-10-11T10:29:42.499Z,36.20
2022-10-11T10:32:37.935Z,36.30
2022-10-11T10:35:39.313Z,36.30
2022-10-11T10:38:24.108Z,36.30
2022-10-11T10:40:58.393Z,36.30
2022-10-11T10:43:32.194Z,36.40
2022-10-11T10:46:26.419Z,36.70
2022-10-11T10:50:13.989Z,36.90
2022-10-11T10:53:04.800Z,36.90
2022-10-11T10:55:38.191Z,36.70
2022-10-11T10:58:22.027Z,36.60
2022-10-11T11:01:03.592Z,36.60
2022-10-11T11:04:26.180Z,36.40
2022-10-11T11:07:20.084Z,36.00
2022-10-11T11:10:16.793Z,35.70
2022-10-11T11:13:10.087Z,35.60
2022-10-11T11:16:05.236Z,35.60
2022-10-11T11:18:51.257Z,35.80
2022-10-11T11:21:41.868Z,35.90
2022-10-11T11:24:20.782Z,36.50
2022-10-11T11:27:28.213Z,36.70
2022-10-11T11:30:34.119Z,36.80
2022-10-11T11:33:18.613Z,36.50
2022-10-11T11:35:58.833Z,36.00
2022-10-11T11:38:52.424Z,35.20
2022-10-11T11:41:45.162Z,34.50
2022-10-11T11:44:31.599Z,33.60
2022-10-11T11:47:24.862Z,33.10
2022-10-11T11:50:04.786Z,32.90
2022-10-11T11:52:44.116Z,32.70
2022-10-11T11:55:23.042Z,32.60
2022-10-11T11:58:37.301Z,32.90
2022-10-11T12:01:50.998Z,33.00
2022-10-11T12:04:45.756Z,32.90
2022-10-11T12:07:21.765Z,32.80
2022-10-11T12:10:37.226Z,32.30
2022-10-11T12:13:31.996Z,31.80
2022-10-11T12:16:13.749Z,31.30
2022-10-11T12:18:57.821Z,30.70
2022-10-11T12:21:39.228Z,30.20
2022-10-11T12:24:19.270Z,29.60
2022-10-11T12:26:48.506Z,29.10
2022-10-11T12:29:18.677Z,28.60
2022-10-11T12:32:11.216Z,28.20
2022-10-11T12:34:42.593Z,27.70
2022-10-11T12:37:19.115Z,27.30
2022-10-11T12:39:55.695Z,26.90
2022-10-11T12:42:25.668Z,26.50
2022-10-11T12:45:11.967Z,26.20
2022-10-11T12:48:33.131Z,26.00
2022-10-11T12:51:30.836Z,25.70
2022-10-11T12:54:29.962Z,25.60
2022-10-11T12:57:12.543Z,25.70
2022-10-11T12:59:46.226Z,25.80
2022-10-11T13:02:42.618Z,25.90
2022-10-11T13:05:45.481Z,26.00
2022-10-11T13:08:32.121Z,26.20
2022-10-11T13:11:05.142Z,26.30
2022-10-11T13:13:39.903Z,26.40
2022-10-11T13:16:16.473Z,26.70
2022-10-11T13:18:47.605Z,26.70
2022-10-11T13:21:36.485Z,26.80
2022-10-11T13:24:19.248Z,27.00
2022-10-11T13:26:49.837Z,27.20
2022-10-11T13:29:38.775Z,27.30
2022-10-11T13:32:27.603Z,27.40
2022-10-11T13:35:07.500Z,27.70
2022-10-11T13:37:45.352Z,27.80
2022-10-11T13:40:16.460Z,28.00
2022-10-11T13:42:44.125Z,28.20
2022-10-11T13:45:19.204Z,28.30
2022-10-11T13:47:48.109Z,28.30
2022-10-11T13:50:32.181Z,28.20
2022-10-11T13:53:07.786Z,28.00
2022-10-11T13:55:54.760Z,27.80
2022-10-11T13:58:27.772Z,27.50
2022-10-11T14:01:04.191Z,27.30
2022-10-11T14:03:59.572Z,27.10
2022-10-11T14:06:56.679Z,26.70
2022-10-11T14:09:32.762Z,26.50
2022-10-11T14:12:35.076Z,26.10
2022-10-11T14:15:25.671Z,26.00
2022-10-11T14:17:53.083Z,25.70
2022-10-11T14:20:26.422Z,25.60
2022-10-11T14:22:56.568Z,25.30
2022-10-11T14:25:23.407Z,25.00
2022-10-11T14:27:50.592Z,24.90
2022-10-11T14:30:26.106Z,24.40
2022-10-11T14:32:56.966Z,24.30
2022-10-11T14:35:31.956Z,24.10
2022-10-11T14:37:59.204Z,23.70
2022-10-11T14:40:30.086Z,23.70
2022-10-11T14:43:22.312Z,23.50
2022-10-11T14:45:49.564Z,23.30
2022-10-11T14:48:26.712Z,23.10
2022-10-11T14:51:04.796Z,23.10
2022-10-11T14:53:31.629Z,23.00
2022-10-11T14:55:58.608Z,23.00
2022-10-11T14:58:25.567Z,22.90
2022-10-11T15:01:17.852Z,22.80
2022-10-11T15:03:44.946Z,22.80
2022-10-11T15:06:24.286Z,22.60
2022-10-11T15:08:51.352Z,22.40
2022-10-11T15:11:20.797Z,22.30
2022-10-11T15:13:48.580Z,22.20
2022-10-11T15:16:19.839Z,22.10
2022-10-11T15:18:52.144Z,22.00
2022-10-11T15:21:23.454Z,21.90
2022-10-11T15:23:53.785Z,21.70
2022-10-11T15:26:28.800Z,21.60
2022-10-11T15:28:57.235Z,21.50
2022-10-11T15:31:24.447Z,21.40
2022-10-11T15:33:55.388Z,21.30
2022-10-11T15:36:22.839Z,21.20
2022-10-11T15:38:50.092Z,21.10
2022-10-11T15:41:19.056Z,21.10
2022-10-11T15:43:48.672Z,20.90
2022-10-11T15:46:20.284Z,20.80
2022-10-11T15:48:48.599Z,20.60
2022-10-11T15:51:16.214Z,20.50
2022-10-11T15:53:43.513Z,20.40
2022-10-11T15:56:16.740Z,20.20
2022-10-11T15:58:44.129Z,20.10
2022-10-11T16:01:19.289Z,20.00
2022-10-11T16:03:48.947Z,19.80
2022-10-11T16:06:17.676Z,19.70
2022-10-11T16:08:45.040Z,19.50
2022-10-11T16:11:13.237Z,19.40
2022-10-11T16:13:40.581Z,19.30
2022-10-11T16:16:09.712Z,19.10
2022-10-11T16:18:37.135Z,18.90
2022-10-11T16:21:11.062Z,18.80
2022-10-11T16:23:38.722Z,18.60
2022-10-11T16:26:11.016Z,18.40
2022-10-11T16:28:38.592Z,18.30
2022-10-11T16:31:17.933Z,18.10
2022-10-11T16:33:46.210Z,18.00
2022-10-11T16:36:31.733Z,17.90
2022-10-11T16:39:00.810Z,17.70
2022-10-11T16:41:27.837Z,17.50
2022-10-11T16:44:27.889Z,17.40
2022-10-11T16:46:55.812Z,17.20
2022-10-11T16:49:26.918Z,17.10
2022-10-11T16:51:59.029Z,17.00
2022-10-11T16:54:30.613Z,16.80
2022-10-11T16:56:58.927Z,16.70
2022-10-11T16:59:26.121Z,16.60
2022-10-11T17:01:53.221Z,16.40
2022-10-11T17:04:20.117Z,16.30
2022-10-11T17:06:47.366Z,16.20
2022-10-11T17:09:14.482Z,16.00
2022-10-11T17:11:42.090Z,15.90
2022-10-11T17:14:11.055Z,15.80
2022-10-11T17:16:37.984Z,15.70
2022-10-11T17:19:05.426Z,15.60
2022-10-11T17:21:32.414Z,15.50
2022-10-11T17:23:59.445Z,15.40
2022-10-11T17:26:27.272Z,15.20
2022-10-11T17:28:59.583Z,15.20
2022-10-11T17:31:28.210Z,15.10
2022-10-11T17:34:20.642Z,15.00
2022-10-11T17:36:47.959Z,14.90
2022-10-11T17:39:19.032Z,14.80
2022-10-11T17:42:11.261Z,14.70
2022-10-11T17:44:38.306Z,14.60
2022-10-11T17:47:05.493Z,14.50
2022-10-11T17:49:32.420Z,14.40
2022-10-11T17:51:59.262Z,14.30
2022-10-11T17:54:26.697Z,14.30
2022-10-11T17:56:54.425Z,14.20
2022-10-11T17:59:21.700Z,14.10
2022-10-11T18:01:50.308Z,14.10
2022-10-11T18:04:21.301Z,14.00
2022-10-11T18:06:49.852Z,13.90
2022-10-11T18:09:18.572Z,13.80
2022-10-11T18:11:47.218Z,13.70
2022-10-11T18:14:14.973Z,13.70
2022-10-11T18:16:42.698Z,13.60
2022-10-11T18:19:13.320Z,13.50
2022-10-11T18:21:40.759Z,13.50
2022-10-11T18:24:15.312Z,13.40
2022-10-11T18:26:44.428Z,13.30
2022-10-11T18:29:12.637Z,13.30
2022-10-11T18:31:40.934Z,13.20
2022-10-11T18:34:10.845Z,13.10
2022-10-11T18:36:38.665Z,13.10
2022-10-11T18:39:08.638Z,13.10
2022-10-11T18:41:38.678Z,13.00
2022-10-11T18:44:08.454Z,13.00
2022-10-11T18:46:36.455Z,12.90
2022-10-11T18:49:03.522Z,12.90
2022-10-11T18:51:39.137Z,12.90
2022-10-11T18:54:08.329Z,12.80
2022-10-11T18:56:37.236Z,12.80
2022-10-11T18:59:05.554Z,12.70
2022-10-11T19:01:39.973Z,12.70
2022-10-11T19:04:10.878Z,12.60
2022-10-11T19:06:45.363Z,12.50
2022-10-11T19:09:21.723Z,12.50
2022-10-11T19:11:54.407Z,12.50
2022-10-11T19:14:28.547Z,12.40
2022-10-11T19:16:56.742Z,12.40
2022-10-11T19:19:29.351Z,12.30
2022-10-11T19:21:56.636Z,12.30
2022-10-11T19:24:26.697Z,12.20
2022-10-11T19:26:58.400Z,12.20
2022-10-11T19:29:28.781Z,12.10
2022-10-11T19:31:59.742Z,12.10
2022-10-11T19:37:19.217Z,12.00
2022-10-11T19:39:46.038Z,12.00
2022-10-11T19:42:13.076Z,12.00
2022-10-11T19:44:39.964Z,11.90
2022-10-11T19:47:07.159Z,11.90
2022-10-11T19:49:34.545Z,11.80
2022-10-11T19:52:02.491Z,11.90
2022-10-11T19:54:29.430Z,11.70
2022-10-11T19:56:56.618Z,11.70
2022-10-11T19:59:23.549Z,11.70
2022-10-11T20:01:53.103Z,11.70
2022-10-11T20:07:08.672Z,11.60
2022-10-11T20:09:35.623Z,11.60
2022-10-11T20:12:02.538Z,11.50
2022-10-11T20:14:30.098Z,11.50
2022-10-11T20:16:57.144Z,11.50
2022-10-11T20:19:30.389Z,11.50
2022-10-11T20:22:01.874Z,11.40
2022-10-11T20:24:32.541Z,11.30
2022-10-11T20:27:02.918Z,11.30
2022-10-11T20:29:29.813Z,11.30
2022-10-11T20:31:56.610Z,11.30
2022-10-11T20:34:23.677Z,11.20
2022-10-11T20:36:50.673Z,11.20
2022-10-11T20:39:17.930Z,11.10
2022-10-11T20:41:48.196Z,11.10
2022-10-11T20:44:16.046Z,11.10
2022-10-11T20:46:43.246Z,11.00
2022-10-11T20:49:11.697Z,11.00
2022-10-11T20:51:41.600Z,11.00
2022-10-11T20:54:13.383Z,10.90
2022-10-11T20:56:40.401Z,10.90
2022-10-11T20:59:07.688Z,10.90
2022-10-11T21:01:38.612Z,10.80
2022-10-11T21:04:07.691Z,10.80
2022-10-11T21:06:34.678Z,10.80
2022-10-11T21:09:02.034Z,10.70
2022-10-11T21:11:31.769Z,10.70
2022-10-11T21:14:02.281Z,10.70
2022-10-11T21:16:29.862Z,10.70
2022-10-11T21:18:58.382Z,10.60
2022-10-11T21:21:26.730Z,10.60
2022-10-11T21:23:55.977Z,10.50
2022-10-11T21:26:22.968Z,10.50
2022-10-11T21:28:50.105Z,10.50
2022-10-11T21:31:19.849Z,10.50
2022-10-11T21:33:47.418Z,10.40
2022-10-11T21:36:17.771Z,10.40
2022-10-11T21:38:46.751Z,10.40
2022-10-11T21:41:18.608Z,10.30
2022-10-11T21:44:10.896Z,10.30
2022-10-11T21:47:05.491Z,10.30
2022-10-11T21:49:25.969Z,10.20
2022-10-11T21:51:53.602Z,10.20
2022-10-11T21:54:20.748Z,10.20
2022-10-11T21:56:47.649Z,10.20
2022-10-11T21:59:14.579Z,10.10
2022-10-11T22:01:43.356Z,10.10
2022-10-11T22:04:10.945Z,10.10
2022-10-11T22:06:38.648Z,10.10
2022-10-11T22:09:06.806Z,10.00
2022-10-11T22:11:33.688Z,10.00
2022-10-11T22:14:00.917Z,10.00
2022-10-11T22:16:28.036Z,10.00
2022-10-11T22:18:54.842Z,9.90
2022-10-11T22:21:23.634Z,9.90
2022-10-11T22:23:53.501Z,9.90
2022-10-11T22:26:26.449Z,9.90
2022-10-11T22:28:53.875Z,9.80
2022-10-11T22:31:22.037Z,9.80
2022-10-11T22:34:13.809Z,9.80
2022-10-11T22:36:41.099Z,9.80
2022-10-11T22:39:09.717Z,9.80
2022-10-11T22:41:37.722Z,9.70
2022-10-11T22:44:05.133Z,9.70
2022-10-11T22:46:32.364Z,9.70
2022-10-11T22:48:59.380Z,9.70
2022-10-11T22:51:26.232Z,9.60
2022-10-11T22:53:53.698Z,9.60
2022-10-11T22:56:20.720Z,9.60
2022-10-11T22:58:47.577Z,9.60
2022-10-11T23:01:16.390Z,9.60
2022-10-11T23:03:43.491Z,9.50
2022-10-11T23:06:10.526Z,9.50
2022-10-11T23:08:37.637Z,9.50
2022-10-11T23:11:06.832Z,9.50
2022-10-11T23:13:34.565Z,9.50
2022-10-11T23:16:10.951Z,9.40
2022-10-11T23:18:38.292Z,9.40
2022-10-11T23:21:06.998Z,9.40
2022-10-11T23:23:34.171Z,9.40
2022-10-11T23:26:12.745Z,9.40
2022-10-11T23:28:40.212Z,9.30
2022-10-11T23:31:16.968Z,9.30
2022-10-11T23:33:45.361Z,9.30
2022-10-11T23:36:24.172Z,9.30
2022-10-11T23:38:53.387Z,9.30
2022-10-11T23:41:21.846Z,9.40
2022-10-11T23:43:49.129Z,9.30
2022-10-11T23:46:16.049Z,9.20
2022-10-11T23:48:43.001Z,9.20
2022-10-11T23:51:09.935Z,9.20
2022-10-11T23:53:38.121Z,9.20
2022-10-11T23:56:06.002Z,9.20
2022-10-11T23:58:33.254Z,9.20
